Barrett, North Carolina
Current Conditions -  °F | °C
As of 6:35 PM on Monday 22 Dec 2014 (Local Time) from KHLX Reporting Station
Moderate Fog Moderate Fog  
Wind Chill: 31°   Ceiling: 300
Heat Index: 35°   Visibility: 0.5mi
Dew Point: 35°   Wind: 5mph
Humidity: 100%   Direction: 80°E
Pressure: 30"   Gusts: NA
Location:  36.5243°N, 80.9743°W
Report Text: KHLX 222335Z AUTO 08004KT 1/2SM FG OVC003 02/02 A3000 RMK AO2 LTG DSNT S T00170017
Loading
Personal Weather Stations






























Interactive Weather Map New forecast layout! Learn more

10-Day Weather Forecast

Advertisements
Track Severe Weather on mobile